createdAt,value
2022-08-23T00:00:01.250Z,101228.25
2022-08-23T00:01:43.625Z,101223.91
2022-08-23T00:03:15.514Z,101218.75
2022-08-23T00:04:56.891Z,101212.69
2022-08-23T00:06:41.215Z,101214.56
2022-08-23T00:08:13.430Z,101217.31
2022-08-23T00:09:45.303Z,101215.66
2022-08-23T00:11:39.442Z,101202.50
2022-08-23T00:13:11.496Z,101215.13
2022-08-23T00:14:50.429Z,101202.88
2022-08-23T00:16:23.684Z,101206.47
2022-08-23T00:17:55.969Z,101202.16
2022-08-23T00:19:28.394Z,101204.03
2022-08-23T00:21:00.377Z,101201.47
2022-08-23T00:22:32.257Z,101207.72
2022-08-23T00:24:07.264Z,101202.47
2022-08-23T00:25:39.129Z,101206.94
2022-08-23T00:27:12.804Z,101202.63
2022-08-23T00:28:44.689Z,101207.16
2022-08-23T00:30:17.900Z,101204.56
2022-08-23T00:31:50.202Z,101206.38
2022-08-23T00:33:22.118Z,101201.16
2022-08-23T00:34:54.189Z,101206.63
2022-08-23T00:36:26.195Z,101200.59
2022-08-23T00:38:32.935Z,101205.13
2022-08-23T00:39:50.712Z,101211.47
2022-08-23T00:41:23.006Z,101207.94
2022-08-23T00:43:21.481Z,101209.88
2022-08-23T00:45:12.135Z,101207.38
2022-08-23T00:47:07.319Z,101210.19
2022-08-23T00:48:39.668Z,101213.00
2022-08-23T00:50:46.909Z,101208.59
2022-08-23T00:52:25.601Z,101206.09
2022-08-23T00:54:01.050Z,101213.28
2022-08-23T00:55:34.539Z,101213.38
2022-08-23T00:57:10.773Z,101213.53
2022-08-23T00:58:43.080Z,101211.88
2022-08-23T01:00:15.536Z,101215.53
2022-08-23T01:01:48.122Z,101215.69
2022-08-23T01:03:22.806Z,101213.97
2022-08-23T01:04:57.063Z,101221.16
2022-08-23T01:06:53.435Z,101220.34
2022-08-23T01:08:26.685Z,101216.09
2022-08-23T01:10:02.524Z,101211.75
2022-08-23T01:11:39.835Z,101212.78
2022-08-23T01:13:15.045Z,101213.69
2022-08-23T01:14:51.911Z,101203.13
2022-08-23T01:16:27.997Z,101215.63
2022-08-23T01:18:11.717Z,101213.13
2022-08-23T01:19:49.288Z,101209.66
2022-08-23T01:21:32.814Z,101219.50
2022-08-23T01:23:26.412Z,101209.94
2022-08-23T01:25:06.864Z,101212.59
2022-08-23T01:26:44.174Z,101218.94
2022-08-23T01:28:16.157Z,101221.72
2022-08-23T01:29:48.061Z,101223.59
2022-08-23T01:31:25.167Z,101227.25
2022-08-23T01:32:58.976Z,101229.97
2022-08-23T01:34:31.253Z,101229.97
2022-08-23T01:36:12.746Z,101230.97
2022-08-23T01:37:45.910Z,101228.38
2022-08-23T01:39:17.873Z,101231.97
2022-08-23T01:40:50.658Z,101230.25
2022-08-23T01:42:22.456Z,101223.19
2022-08-23T01:43:54.432Z,101222.53
2022-08-23T01:45:30.121Z,101220.81
2022-08-23T01:47:02.125Z,101235.97
2022-08-23T01:48:34.257Z,101234.25
2022-08-23T01:50:08.547Z,101239.50
2022-08-23T01:51:40.532Z,101243.09
2022-08-23T01:53:13.827Z,101237.00
2022-08-23T01:54:50.299Z,101230.97
2022-08-23T01:56:38.270Z,101235.53
2022-08-23T01:58:13.543Z,101236.50
2022-08-23T01:59:45.521Z,101233.97
2022-08-23T02:01:19.129Z,101238.50
2022-08-23T02:02:51.934Z,101237.97
2022-08-23T02:04:23.974Z,101243.41
2022-08-23T02:05:56.694Z,101236.69
2022-08-23T02:07:29.222Z,101235.34
2022-08-23T02:09:03.394Z,101240.94
2022-08-23T02:10:38.795Z,101241.38
2022-08-23T02:12:11.389Z,101232.88
2022-08-23T02:13:45.182Z,101236.88
2022-08-23T02:15:18.356Z,101233.53
2022-08-23T02:17:03.967Z,101243.44
2022-08-23T02:18:38.108Z,101238.19
2022-08-23T02:20:10.394Z,101238.31
2022-08-23T02:21:43.479Z,101247.31
2022-08-23T02:23:19.440Z,101250.00
2022-08-23T02:24:51.435Z,101246.44
2022-08-23T02:26:31.188Z,101241.84
2022-08-23T02:28:04.948Z,101250.66
2022-08-23T02:29:39.112Z,101246.16
2022-08-23T02:31:13.600Z,101249.59
2022-08-23T02:32:45.979Z,101238.91
2022-08-23T02:34:20.702Z,101243.31
2022-08-23T02:35:52.657Z,101246.75
2022-08-23T02:37:25.013Z,101235.28
2022-08-23T02:38:56.974Z,101236.94
2022-08-23T02:40:29.050Z,101240.47
2022-08-23T02:42:01.218Z,101235.22
2022-08-23T02:43:40.969Z,101237.88
2022-08-23T02:45:13.979Z,101234.28
2022-08-23T02:46:51.300Z,101245.72
2022-08-23T02:48:23.203Z,101235.09
2022-08-23T02:50:08.343Z,101242.06
2022-08-23T02:51:41.598Z,101242.94
2022-08-23T02:53:13.619Z,101250.03
2022-08-23T02:54:45.522Z,101241.28
2022-08-23T02:56:21.644Z,101250.09
2022-08-23T02:57:55.626Z,101253.69
2022-08-23T02:59:27.395Z,101255.47
2022-08-23T03:00:59.805Z,101251.16
2022-08-23T03:02:31.860Z,101257.38
2022-08-23T03:04:06.607Z,101251.22
2022-08-23T03:05:38.441Z,101257.50
2022-08-23T03:07:10.361Z,101248.22
2022-08-23T03:08:43.311Z,101253.72
2022-08-23T03:10:17.994Z,101261.16
2022-08-23T03:11:58.894Z,101259.44
2022-08-23T03:13:31.124Z,101263.00
2022-08-23T03:15:04.460Z,101250.72
2022-08-23T03:16:39.608Z,101250.84
2022-08-23T03:18:12.992Z,101256.09
2022-08-23T03:19:45.911Z,101251.66
2022-08-23T03:21:18.547Z,101249.75
2022-08-23T03:22:54.433Z,101248.81
2022-08-23T03:24:28.524Z,101257.53
2022-08-23T03:26:01.992Z,101251.34
2022-08-23T03:27:38.367Z,101252.28
2022-08-23T03:29:17.534Z,101251.47
2022-08-23T03:31:09.041Z,101250.66
2022-08-23T03:32:50.784Z,101252.47
2022-08-23T03:34:22.641Z,101255.06
2022-08-23T03:35:59.749Z,101258.63
2022-08-23T03:37:32.372Z,101263.13
2022-08-23T03:39:05.640Z,101256.03
2022-08-23T03:40:37.770Z,101256.78
2022-08-23T03:42:10.330Z,101260.38
2022-08-23T03:43:42.225Z,101265.66
2022-08-23T03:45:14.488Z,101264.81
2022-08-23T03:46:46.334Z,101267.47
2022-08-23T03:48:18.789Z,101271.91
2022-08-23T03:49:51.784Z,101269.25
2022-08-23T03:51:24.694Z,101280.72
2022-08-23T03:52:57.290Z,101282.50
2022-08-23T03:54:30.241Z,101275.47
2022-08-23T03:56:02.989Z,101276.34
2022-08-23T03:57:34.903Z,101286.09
2022-08-23T03:59:11.601Z,101287.94
2022-08-23T04:00:44.053Z,101287.13
2022-08-23T04:02:16.824Z,101280.09
2022-08-23T04:03:48.675Z,101285.50
2022-08-23T04:05:21.851Z,101290.81
2022-08-23T04:07:03.116Z,101281.25
2022-08-23T04:08:35.090Z,101289.19
2022-08-23T04:10:09.927Z,101286.66
2022-08-23T04:11:44.297Z,101294.63
2022-08-23T04:13:16.205Z,101297.22
2022-08-23T04:14:48.069Z,101292.91
2022-08-23T04:16:20.695Z,101292.91
2022-08-23T04:17:52.760Z,101295.66
2022-08-23T04:19:24.775Z,101287.81
2022-08-23T04:21:10.815Z,101298.44
2022-08-23T04:22:42.977Z,101293.22
2022-08-23T04:24:19.167Z,101295.88
2022-08-23T04:25:51.393Z,101292.41
2022-08-23T04:27:23.767Z,101295.94
2022-08-23T04:28:57.043Z,101308.41
2022-08-23T04:30:29.078Z,101308.50
2022-08-23T04:32:02.173Z,101304.94
2022-08-23T04:33:40.201Z,101314.75
2022-08-23T04:35:15.027Z,101307.81
2022-08-23T04:36:51.943Z,101314.09
2022-08-23T04:38:27.505Z,101317.78
2022-08-23T04:40:21.507Z,101318.72
2022-08-23T04:42:14.750Z,101315.25
2022-08-23T04:43:47.462Z,101313.56
2022-08-23T04:45:19.829Z,101320.72
2022-08-23T04:46:55.006Z,101314.59
2022-08-23T04:48:27.368Z,101318.44
2022-08-23T04:49:59.286Z,101323.03
2022-08-23T04:51:31.381Z,101324.97
2022-08-23T04:53:03.716Z,101327.84
2022-08-23T04:54:40.839Z,101319.09
2022-08-23T04:56:42.768Z,101321.78
2022-08-23T04:58:15.844Z,101322.00
2022-08-23T04:59:50.612Z,101324.66
2022-08-23T05:01:26.386Z,101327.34
2022-08-23T05:02:59.691Z,101327.31
2022-08-23T05:04:31.775Z,101328.00
2022-08-23T05:06:05.328Z,101332.34
2022-08-23T05:07:44.664Z,101321.75
2022-08-23T05:09:20.517Z,101323.53
2022-08-23T05:10:53.803Z,101329.75
2022-08-23T05:12:25.860Z,101328.13
2022-08-23T05:14:04.367Z,101337.75
2022-08-23T05:15:36.282Z,101334.13
2022-08-23T05:17:10.223Z,101341.19
2022-08-23T05:18:42.737Z,101339.44
2022-08-23T05:20:14.810Z,101347.31
2022-08-23T05:21:47.686Z,101348.03
2022-08-23T05:23:20.342Z,101350.56
2022-08-23T05:25:05.506Z,101347.00
2022-08-23T05:26:46.269Z,101349.66
2022-08-23T05:28:22.708Z,101353.22
2022-08-23T05:30:00.987Z,101348.03
2022-08-23T05:31:34.279Z,101350.63
2022-08-23T05:33:08.369Z,101353.22
2022-08-23T05:34:40.275Z,101343.44
2022-08-23T05:36:17.008Z,101355.66
2022-08-23T05:37:48.837Z,101352.91
2022-08-23T05:39:30.358Z,101352.91
2022-08-23T05:41:10.534Z,101354.66
2022-08-23T05:42:42.584Z,101358.22
2022-08-23T05:44:14.555Z,101362.75
2022-08-23T05:45:48.373Z,101359.28
2022-08-23T05:47:24.720Z,101369.91
2022-08-23T05:49:15.649Z,101361.19
2022-08-23T05:50:54.238Z,101362.00
2022-08-23T05:52:26.588Z,101357.56
2022-08-23T05:54:00.798Z,101354.81
2022-08-23T05:55:35.006Z,101359.19
2022-08-23T05:57:35.270Z,101365.34
2022-08-23T05:59:12.554Z,101359.28
2022-08-23T06:00:46.188Z,101367.28
2022-08-23T06:02:18.364Z,101369.13
2022-08-23T06:03:50.647Z,101372.50
2022-08-23T06:05:22.752Z,101373.19
2022-08-23T06:06:58.875Z,101372.19
2022-08-23T06:08:31.180Z,101375.66
2022-08-23T06:10:04.629Z,101370.28
2022-08-23T06:11:38.337Z,101380.72
2022-08-23T06:13:11.824Z,101378.63
2022-08-23T06:14:43.710Z,101380.13
2022-08-23T06:16:19.080Z,101388.84
2022-08-23T06:17:51.341Z,101393.00
2022-08-23T06:19:23.956Z,101398.00
2022-08-23T06:21:28.905Z,101398.47
2022-08-23T06:23:01.404Z,101400.09
2022-08-23T06:24:34.096Z,101402.63
2022-08-23T06:26:25.516Z,101402.25
2022-08-23T06:28:01.521Z,101400.28
2022-08-23T06:29:35.173Z,101409.09
2022-08-23T06:31:47.053Z,101404.50
2022-08-23T06:33:22.109Z,101396.44
2022-08-23T06:35:37.848Z,101399.72
2022-08-23T06:37:28.281Z,101393.31
2022-08-23T06:39:28.014Z,101390.38
2022-08-23T06:41:12.922Z,101390.09
2022-08-23T06:43:04.733Z,101395.91
2022-08-23T06:44:55.690Z,101385.19
2022-08-23T06:46:41.226Z,101393.03
2022-08-23T06:48:18.267Z,101392.00
2022-08-23T06:49:53.399Z,101396.38
2022-08-23T06:51:52.461Z,101398.81
2022-08-23T06:53:42.765Z,101396.25
2022-08-23T06:55:31.731Z,101397.94
2022-08-23T06:57:26.787Z,101399.53
2022-08-23T06:59:19.474Z,101388.03
2022-08-23T07:01:44.165Z,101383.53
2022-08-23T07:03:18.410Z,101393.94
2022-08-23T07:05:22.639Z,101388.41
2022-08-23T07:07:12.261Z,101383.84
2022-08-23T07:08:44.477Z,101389.84
2022-08-23T07:10:16.650Z,101390.44
2022-08-23T07:11:48.899Z,101390.22
2022-08-23T07:13:20.811Z,101393.59
2022-08-23T07:14:53.181Z,101388.91
2022-08-23T07:16:25.907Z,101396.50
2022-08-23T07:17:57.944Z,101391.59
2022-08-23T07:19:31.847Z,101391.06
2022-08-23T07:21:05.449Z,101392.66
2022-08-23T07:22:37.375Z,101387.03
2022-08-23T07:24:10.200Z,101390.88
2022-08-23T07:25:42.181Z,101389.56
2022-08-23T07:27:17.961Z,101396.06
2022-08-23T07:29:04.802Z,101397.22
2022-08-23T07:30:36.682Z,101394.84
2022-08-23T07:32:09.757Z,101395.72
2022-08-23T07:33:44.562Z,101398.84
2022-08-23T07:35:21.519Z,101403.56
2022-08-23T07:36:55.128Z,101405.84
2022-08-23T07:38:30.590Z,101403.59
2022-08-23T07:40:04.126Z,101397.44
2022-08-23T07:41:38.921Z,101395.41
2022-08-23T07:43:13.264Z,101400.09
2022-08-23T07:44:46.489Z,101397.69
2022-08-23T07:46:19.729Z,101406.50
2022-08-23T07:47:52.353Z,101398.09
2022-08-23T07:49:29.185Z,101400.69
2022-08-23T07:51:09.064Z,101412.94
2022-08-23T07:52:44.764Z,101409.31
2022-08-23T07:54:21.416Z,101408.22
2022-08-23T07:56:29.360Z,101417.34
2022-08-23T07:58:13.108Z,101409.66
2022-08-23T08:00:04.588Z,101415.28
2022-08-23T08:01:53.273Z,101418.59
2022-08-23T08:03:29.837Z,101419.84
2022-08-23T08:05:24.832Z,101416.53
2022-08-23T08:07:18.269Z,101418.81
2022-08-23T08:08:54.544Z,101425.38
2022-08-23T08:10:28.988Z,101416.44
2022-08-23T08:12:01.191Z,101416.59
2022-08-23T08:13:38.822Z,101418.22
2022-08-23T08:15:11.359Z,101417.69
2022-08-23T08:16:48.119Z,101419.59
2022-08-23T08:18:25.512Z,101417.50
2022-08-23T08:20:37.025Z,101416.47
2022-08-23T08:22:29.217Z,101416.47
2022-08-23T08:24:35.045Z,101416.81
2022-08-23T08:26:11.806Z,101415.03
2022-08-23T08:27:51.687Z,101418.59
2022-08-23T08:29:23.704Z,101416.78
2022-08-23T08:30:56.405Z,101419.38
2022-08-23T08:32:28.362Z,101417.97
2022-08-23T08:34:00.473Z,101419.91
2022-08-23T08:35:32.344Z,101417.41
2022-08-23T08:37:04.502Z,101419.53
2022-08-23T08:38:47.931Z,101417.00
2022-08-23T08:40:31.726Z,101424.97
2022-08-23T08:42:12.177Z,101417.88
2022-08-23T08:44:06.784Z,101418.03
2022-08-23T08:45:59.381Z,101425.59
2022-08-23T08:47:39.621Z,101424.16
2022-08-23T08:49:18.643Z,101433.09
2022-08-23T08:50:55.480Z,101433.59
2022-08-23T08:52:32.407Z,101434.16
2022-08-23T08:54:11.636Z,101429.75
2022-08-23T08:55:52.993Z,101423.69
2022-08-23T08:57:27.728Z,101428.84
2022-08-23T08:59:09.499Z,101419.81
2022-08-23T09:00:41.487Z,101420.16
2022-08-23T09:02:22.152Z,101427.06
2022-08-23T09:04:06.786Z,101423.19
2022-08-23T09:06:00.340Z,101419.88
2022-08-23T09:08:10.537Z,101422.41
2022-08-23T09:10:03.830Z,101422.00
2022-08-23T09:11:45.754Z,101421.31
2022-08-23T09:13:53.963Z,101415.31
2022-08-23T09:15:36.742Z,101417.03
2022-08-23T09:17:26.526Z,101416.81
2022-08-23T09:19:01.314Z,101421.66
2022-08-23T09:20:34.911Z,101416.25
2022-08-23T09:22:17.277Z,101408.72
2022-08-23T09:23:57.134Z,101411.59
2022-08-23T09:26:03.520Z,101423.19
2022-08-23T09:27:45.728Z,101427.50
2022-08-23T09:29:20.944Z,101435.69
2022-08-23T09:30:58.194Z,101426.75
2022-08-23T09:32:37.817Z,101427.63
2022-08-23T09:34:19.591Z,101428.13
2022-08-23T09:36:19.123Z,101420.41
2022-08-23T09:38:20.565Z,101434.19
2022-08-23T09:40:20.875Z,101425.88
2022-08-23T09:41:53.143Z,101421.66
2022-08-23T09:43:34.029Z,101415.78
2022-08-23T09:45:35.167Z,101423.78
2022-08-23T09:47:23.459Z,101417.91
2022-08-23T09:49:01.387Z,101414.81
2022-08-23T09:50:43.391Z,101411.03
2022-08-23T09:52:29.271Z,101415.78
2022-08-23T09:54:22.150Z,101420.97
2022-08-23T09:55:57.387Z,101417.06
2022-08-23T09:57:31.931Z,101412.66
2022-08-23T09:59:04.432Z,101414.50
2022-08-23T10:00:47.104Z,101410.97
2022-08-23T10:02:21.577Z,101417.59
2022-08-23T10:04:41.173Z,101407.38
2022-08-23T10:06:31.370Z,101416.72
2022-08-23T10:08:10.330Z,101413.53
2022-08-23T10:09:48.094Z,101411.56
2022-08-23T10:11:20.202Z,101413.66
2022-08-23T10:12:54.365Z,101413.69
2022-08-23T10:14:33.963Z,101409.25
2022-08-23T10:16:23.129Z,101405.63
2022-08-23T10:18:12.068Z,101395.16
2022-08-23T10:20:06.116Z,101402.72
2022-08-23T10:21:48.161Z,101397.16
2022-08-23T10:23:22.936Z,101401.34
2022-08-23T10:25:24.727Z,101397.06
2022-08-23T10:27:30.737Z,101403.97
2022-08-23T10:29:35.424Z,101390.78
2022-08-23T10:31:23.242Z,101394.97
2022-08-23T10:33:05.121Z,101394.19
2022-08-23T10:34:59.005Z,101390.34
2022-08-23T10:36:43.126Z,101400.19
2022-08-23T10:38:24.465Z,101394.09
2022-08-23T10:40:10.123Z,101399.41
2022-08-23T10:42:06.579Z,101391.72
2022-08-23T10:43:41.393Z,101384.78
2022-08-23T10:45:15.555Z,101387.38
2022-08-23T10:46:57.641Z,101389.94
2022-08-23T10:48:32.894Z,101383.97
2022-08-23T10:50:13.170Z,101392.78
2022-08-23T10:51:49.316Z,101386.50
2022-08-23T10:53:34.737Z,101382.81
2022-08-23T10:55:34.989Z,101381.81
2022-08-23T10:57:07.956Z,101381.91
2022-08-23T10:58:47.524Z,101379.66
2022-08-23T11:00:24.436Z,101379.50
2022-08-23T11:02:01.696Z,101380.53
2022-08-23T11:03:42.399Z,101377.41
2022-08-23T11:05:22.474Z,101375.84
2022-08-23T11:06:56.450Z,101375.13
2022-08-23T11:08:35.174Z,101373.25
2022-08-23T11:10:17.054Z,101368.69
2022-08-23T11:12:19.902Z,101372.63
2022-08-23T11:13:53.087Z,101371.63
2022-08-23T11:15:59.218Z,101379.25
2022-08-23T11:17:42.516Z,101374.97
2022-08-23T11:19:46.177Z,101382.09
2022-08-23T11:21:22.116Z,101384.66
2022-08-23T11:23:00.937Z,101383.75
2022-08-23T11:24:34.711Z,101375.38
2022-08-23T11:26:12.139Z,101380.00
2022-08-23T11:27:44.588Z,101383.56
2022-08-23T11:29:24.998Z,101387.13
2022-08-23T11:31:22.782Z,101379.50
2022-08-23T11:32:55.382Z,101384.03
2022-08-23T11:34:29.849Z,101376.56
2022-08-23T11:36:09.157Z,101377.28
2022-08-23T11:37:57.288Z,101374.44
2022-08-23T11:40:13.629Z,101376.19
2022-08-23T11:42:03.680Z,101380.28
2022-08-23T11:43:40.433Z,101381.75
2022-08-23T11:45:27.472Z,101378.41
2022-08-23T11:47:07.184Z,101377.66
2022-08-23T11:48:46.647Z,101377.31
2022-08-23T11:50:33.615Z,101377.88
2022-08-23T11:52:29.416Z,101372.16
2022-08-23T11:54:31.642Z,101377.84
2022-08-23T11:56:21.800Z,101378.63
2022-08-23T11:58:02.497Z,101377.66
2022-08-23T12:00:07.745Z,101371.31
2022-08-23T12:01:45.704Z,101366.09
2022-08-23T12:03:27.590Z,101374.41
2022-08-23T12:05:22.103Z,101372.03
2022-08-23T12:06:57.733Z,101376.19
2022-08-23T12:08:31.651Z,101376.97
2022-08-23T12:10:05.817Z,101376.09
2022-08-23T12:11:52.989Z,101368.84
2022-08-23T12:13:24.853Z,101365.19
2022-08-23T12:15:00.882Z,101367.59
2022-08-23T12:16:34.877Z,101361.03
2022-08-23T12:18:13.009Z,101366.47
2022-08-23T12:19:48.978Z,101365.38
2022-08-23T12:21:43.486Z,101366.81
2022-08-23T12:23:19.220Z,101365.69
2022-08-23T12:24:52.930Z,101364.19
2022-08-23T12:26:47.439Z,101370.13
2022-08-23T12:28:38.173Z,101355.91
2022-08-23T12:30:23.086Z,101367.19
2022-08-23T12:32:21.501Z,101363.47
2022-08-23T12:34:02.880Z,101359.06
2022-08-23T12:35:53.344Z,101364.03
2022-08-23T12:37:52.614Z,101362.19
2022-08-23T12:39:32.134Z,101366.22
2022-08-23T12:41:48.608Z,101366.50
2022-08-23T12:43:23.474Z,101363.22
2022-08-23T12:45:17.433Z,101364.75
2022-08-23T12:46:50.185Z,101369.03
2022-08-23T12:48:28.978Z,101368.06
2022-08-23T12:50:02.932Z,101367.19
2022-08-23T12:51:42.394Z,101371.16
2022-08-23T12:53:17.173Z,101365.44
2022-08-23T12:54:51.039Z,101358.44
2022-08-23T12:56:31.595Z,101364.13
2022-08-23T12:58:05.189Z,101362.06
2022-08-23T12:59:44.978Z,101374.03
2022-08-23T13:01:32.699Z,101375.91
2022-08-23T13:03:29.194Z,101368.34
2022-08-23T13:05:13.675Z,101365.81
2022-08-23T13:06:56.974Z,101367.94
2022-08-23T13:08:34.987Z,101375.25
2022-08-23T13:10:08.499Z,101372.81
2022-08-23T13:11:40.857Z,101366.78
2022-08-23T13:13:13.484Z,101362.81
2022-08-23T13:14:48.704Z,101373.47
2022-08-23T13:16:46.482Z,101368.78
2022-08-23T13:18:31.080Z,101365.78
2022-08-23T13:20:02.976Z,101364.41
2022-08-23T13:21:39.528Z,101361.59
2022-08-23T13:23:17.464Z,101360.13
2022-08-23T13:27:14.435Z,101357.00
2022-08-23T13:29:10.462Z,101368.69
2022-08-23T13:30:59.074Z,101371.25
2022-08-23T13:32:38.893Z,101368.00
2022-08-23T13:34:10.739Z,101368.97
2022-08-23T13:35:46.968Z,101366.53
2022-08-23T13:37:26.877Z,101366.69
2022-08-23T13:39:07.913Z,101368.81
2022-08-23T13:40:45.476Z,101362.88
2022-08-23T13:42:43.396Z,101368.22
2022-08-23T13:44:28.021Z,101364.09
2022-08-23T13:46:10.912Z,101361.94
2022-08-23T13:47:51.531Z,101374.28
2022-08-23T13:49:28.565Z,101373.66
2022-08-23T13:51:20.707Z,101359.22
2022-08-23T13:54:44.778Z,101365.16
2022-08-23T13:56:23.687Z,101363.59
2022-08-23T13:57:56.831Z,101369.16
2022-08-23T13:59:33.549Z,101363.00
2022-08-23T14:01:18.486Z,101365.19
2022-08-23T14:02:52.187Z,101364.03
2022-08-23T14:04:24.287Z,101365.09
2022-08-23T14:05:56.316Z,101355.38
2022-08-23T14:07:28.275Z,101357.41
2022-08-23T14:09:02.539Z,101360.84
2022-08-23T14:10:34.540Z,101362.22
2022-08-23T14:12:15.754Z,101357.66
2022-08-23T14:13:50.337Z,101370.94
2022-08-23T14:15:54.616Z,101361.41
2022-08-23T14:17:20.147Z,101363.94
2022-08-23T14:20:46.050Z,101363.81
2022-08-23T14:22:20.508Z,101368.06
2022-08-23T14:23:52.636Z,101367.59
2022-08-23T14:25:24.772Z,101356.63
2022-08-23T14:26:57.553Z,101359.25
2022-08-23T14:28:31.418Z,101354.44
2022-08-23T14:30:05.793Z,101355.19
2022-08-23T14:31:38.111Z,101365.38
2022-08-23T14:33:12.786Z,101363.59
2022-08-23T14:34:44.745Z,101358.47
2022-08-23T14:36:16.919Z,101358.84
2022-08-23T14:38:05.040Z,101365.75
2022-08-23T14:39:37.272Z,101360.00
2022-08-23T14:41:12.031Z,101353.22
2022-08-23T14:42:46.041Z,101353.31
2022-08-23T14:44:18.116Z,101353.06
2022-08-23T14:45:50.588Z,101345.00
2022-08-23T14:47:22.585Z,101355.84
2022-08-23T14:48:57.645Z,101347.63
2022-08-23T14:50:29.535Z,101353.97
2022-08-23T14:52:01.513Z,101355.19
2022-08-23T14:53:34.685Z,101344.59
2022-08-23T14:55:07.174Z,101349.75
2022-08-23T14:56:39.209Z,101338.78
2022-08-23T14:58:11.116Z,101343.63
2022-08-23T14:59:44.444Z,101338.56
2022-08-23T15:01:17.441Z,101340.88
2022-08-23T15:02:50.445Z,101333.31
2022-08-23T15:04:24.222Z,101336.31
2022-08-23T15:05:57.025Z,101334.19
2022-08-23T15:07:28.872Z,101338.75
2022-08-23T15:09:01.369Z,101333.63
2022-08-23T15:14:17.485Z,101341.72
2022-08-23T15:15:49.641Z,101346.44
2022-08-23T15:17:21.607Z,101337.31
2022-08-23T15:18:53.592Z,101328.47
2022-08-23T15:20:28.611Z,101335.75
2022-08-23T15:22:04.809Z,101333.31
2022-08-23T15:23:47.012Z,101345.44
2022-08-23T15:25:19.294Z,101341.00
2022-08-23T15:26:51.800Z,101329.19
2022-08-23T15:28:24.184Z,101335.00
2022-08-23T15:29:55.938Z,101332.88
2022-08-23T15:31:28.972Z,101336.75
2022-08-23T15:33:01.147Z,101337.59
2022-08-23T15:34:33.349Z,101324.19
2022-08-23T15:36:08.566Z,101326.47
2022-08-23T15:37:46.416Z,101333.03
2022-08-23T15:39:18.277Z,101331.63
2022-08-23T15:40:56.348Z,101334.19
2022-08-23T15:42:28.801Z,101319.91
2022-08-23T15:44:04.029Z,101322.63
2022-08-23T15:45:36.539Z,101316.22
2022-08-23T15:47:18.829Z,101317.22
2022-08-23T15:48:59.306Z,101325.66
2022-08-23T15:50:33.788Z,101317.91
2022-08-23T15:52:06.095Z,101316.34
2022-08-23T15:53:39.492Z,101320.78
2022-08-23T15:55:11.474Z,101323.19
2022-08-23T15:56:49.940Z,101321.91
2022-08-23T15:58:25.240Z,101323.91
2022-08-23T15:59:57.769Z,101318.19
2022-08-23T16:01:33.700Z,101324.19
2022-08-23T16:03:18.792Z,101328.31
2022-08-23T16:04:52.680Z,101322.50
2022-08-23T16:06:24.610Z,101320.34
2022-08-23T16:07:57.976Z,101317.94
2022-08-23T16:09:31.970Z,101327.34
2022-08-23T16:11:10.553Z,101324.78
2022-08-23T16:12:42.528Z,101325.34
2022-08-23T16:14:14.853Z,101320.78
2022-08-23T16:15:46.958Z,101316.66
2022-08-23T16:17:20.407Z,101319.50
2022-08-23T16:19:00.785Z,101319.91
2022-08-23T16:20:32.835Z,101319.84
2022-08-23T16:22:04.955Z,101319.13
2022-08-23T16:23:39.968Z,101326.38
2022-08-23T16:25:12.062Z,101325.78
2022-08-23T16:26:45.374Z,101330.63
2022-08-23T16:28:17.989Z,101321.03
2022-08-23T16:29:49.682Z,101328.16
2022-08-23T16:31:22.687Z,101322.88
2022-08-23T16:33:11.341Z,101323.59
2022-08-23T16:34:46.734Z,101318.75
2022-08-23T16:36:18.704Z,101323.88
2022-08-23T16:37:50.640Z,101319.47
2022-08-23T16:39:22.787Z,101319.34
2022-08-23T16:40:55.134Z,101323.03
2022-08-23T16:42:27.130Z,101323.75
2022-08-23T16:43:59.107Z,101331.72
2022-08-23T16:45:31.293Z,101327.44
2022-08-23T16:47:12.850Z,101322.28
2022-08-23T16:48:45.363Z,101329.69
2022-08-23T16:50:20.420Z,101315.78
2022-08-23T16:51:53.133Z,101321.47
2022-08-23T16:53:26.998Z,101325.25
2022-08-23T16:54:58.929Z,101330.34
2022-08-23T16:56:36.024Z,101328.31
2022-08-23T16:58:08.103Z,101321.59
2022-08-23T16:59:40.739Z,101324.56
2022-08-23T17:01:14.892Z,101320.28
2022-08-23T17:02:47.202Z,101319.16
2022-08-23T17:04:19.312Z,101327.53
2022-08-23T17:05:51.364Z,101327.69
2022-08-23T17:07:23.401Z,101312.47
2022-08-23T17:08:55.258Z,101318.94
2022-08-23T17:10:27.142Z,101315.38
2022-08-23T17:11:59.480Z,101319.91
2022-08-23T17:13:31.510Z,101330.13
2022-08-23T17:15:05.167Z,101330.41
2022-08-23T17:16:37.225Z,101327.34
2022-08-23T17:18:09.413Z,101324.78
2022-08-23T17:19:41.587Z,101329.13
2022-08-23T17:21:16.836Z,101324.38
2022-08-23T17:22:49.508Z,101330.00
2022-08-23T17:24:23.902Z,101325.59
2022-08-23T17:25:57.829Z,101328.91
2022-08-23T17:27:30.813Z,101336.78
2022-08-23T17:29:04.723Z,101341.72
2022-08-23T17:30:36.740Z,101339.28
2022-08-23T17:32:10.084Z,101343.69
2022-08-23T17:33:42.145Z,101341.00
2022-08-23T17:35:15.304Z,101340.75
2022-08-23T17:36:50.180Z,101346.00
2022-08-23T17:38:22.073Z,101342.31
2022-08-23T17:39:54.081Z,101359.03
2022-08-23T17:41:27.671Z,101358.94
2022-08-23T17:43:00.964Z,101358.47
2022-08-23T17:44:32.912Z,101354.56
2022-08-23T17:46:07.329Z,101366.19
2022-08-23T17:47:39.590Z,101361.91
2022-08-23T17:49:15.602Z,101359.69
2022-08-23T17:50:48.472Z,101359.94
2022-08-23T17:52:20.346Z,101358.22
2022-08-23T17:53:54.582Z,101362.88
2022-08-23T17:55:26.418Z,101370.00
2022-08-23T17:57:01.907Z,101369.22
2022-08-23T17:58:37.224Z,101371.94
2022-08-23T18:00:09.927Z,101366.53
2022-08-23T18:01:42.302Z,101371.94
2022-08-23T18:03:14.628Z,101368.63
2022-08-23T18:04:47.109Z,101373.66
2022-08-23T18:06:18.910Z,101368.75
2022-08-23T18:07:50.839Z,101374.16
2022-08-23T18:09:28.640Z,101376.13
2022-08-23T18:11:00.700Z,101376.34
2022-08-23T18:12:32.559Z,101377.09
2022-08-23T18:14:04.827Z,101376.34
2022-08-23T18:15:37.748Z,101381.75
2022-08-23T18:17:09.658Z,101372.69
2022-08-23T18:18:41.967Z,101372.81
2022-08-23T18:20:14.188Z,101376.59
2022-08-23T18:21:46.874Z,101377.72
2022-08-23T18:23:18.901Z,101382.38
2022-08-23T18:24:50.739Z,101388.81
2022-08-23T18:26:42.949Z,101384.28
2022-08-23T18:28:18.184Z,101387.34
2022-08-23T18:29:51.704Z,101382.06
2022-08-23T18:31:23.938Z,101386.84
2022-08-23T18:32:55.993Z,101395.91
2022-08-23T18:34:30.381Z,101393.34
2022-08-23T18:36:02.427Z,101402.50
2022-08-23T18:37:34.737Z,101389.38
2022-08-23T18:39:07.967Z,101395.13
2022-08-23T18:40:47.994Z,101395.50
2022-08-23T18:42:20.214Z,101397.56
2022-08-23T18:43:52.270Z,101400.63
2022-08-23T18:45:24.472Z,101413.47
2022-08-23T18:46:56.370Z,101407.34
2022-08-23T18:48:28.327Z,101410.28